Flight Track Log - Related Links

Times and Time Zones

All times are in EDT time to prevent confusion due to time zone crossing. See the SWA419 flight status page for this flight to view local times or setup timezone preferences in your user account.

Time Position Orientation Groundspeed Altitude Reporting Facility
EDT Latitude Longitude Course Direction KTS MPH feet Rate Location/Type
Mon 12:19:30 AM 37.4500 -121.9667 360° North 217 250 5,000  Level Northern Cal TRACON
Mon 12:20:30 AM 37.4167 -121.9000 122° Southeast 225 259 5,000 850 Level Northern Cal TRACON
Mon 12:21:30 AM 37.3833 -121.8500 130° Southeast 234 269 6,700 1,824 Climbing Northern Cal TRACON
Mon 12:22:12 AM 37.3417 -121.8128 145° Southeast 251 289 8,100 3,059 Climbing Oakland Center
Mon 12:23:00 AM 36.9975 -121.5025 138° Southeast  Level Estimated
Mon 12:23:12 AM 37.2794 -121.7411 137° Southeast 303 349 11,900  Level Oakland Center
Mon 12:24:13 AM 37.2111 -121.6675 139° Southeast 323 372 15,800 3,639 Climbing Oakland Center
Mon 12:25:14 AM 37.1408 -121.5869 138° Southeast 344 396 19,300 3,295 Climbing Oakland Center
Mon 12:26:15 AM 37.0683 -121.5061 138° Southeast 359 413 22,500 2,951 Climbing Oakland Center
Mon 12:27:16 AM 36.9906 -121.4211 139° Southeast 371 427 25,300 3,074 Climbing Oakland Center
Mon 12:28:16 AM 36.8936 -121.3139 138° Southeast 389 448 28,700 3,074 Climbing Oakland Center
Mon 12:29:17 AM 36.8133 -121.2267 139° Southeast 384 442 31,500 2,410 Climbing Oakland Center
Mon 12:30:18 AM 36.7436 -121.1536 140° Southeast 375 432 33,600 2,016 Climbing Oakland Center
Mon 12:31:19 AM 36.6669 -121.0675 138° Southeast 373 429 35,600 1,475 Climbing Oakland Center
Mon 12:32:20 AM 36.5897 -120.9819 138° Southeast 372 428 36,600 984 Climbing Oakland Center
Mon 12:33:21 AM 36.5061 -120.8939 140° Southeast 391 450 37,600 934 Climbing Oakland Center
Mon 12:34:22 AM 36.4047 -120.7811 138° Southeast 408 470 38,500 787 Climbing Oakland Center
Mon 12:35:23 AM 36.3147 -120.6847 139° Southeast 427 491 39,200 645 Climbing Oakland Center
Mon 12:36:23 AM 36.2200 -120.5861 140° Southeast 443 510 39,800 793 Climbing Oakland Center
Mon 12:37:24 AM 36.1236 -120.4811 139° Southeast 459 528 40,800 590 Climbing Oakland Center
Mon 12:38:25 AM 36.0264 -120.3753 139° Southeast 464 534 41,000 98 Climbing Oakland Center
Mon 12:39:26 AM 35.9339 -120.2797 140° Southeast 440 506 41,000  Level Oakland Center
Mon 12:40:27 AM 35.8386 -120.1803 140° Southeast 446 513 41,000  Level Oakland Center
Mon 12:41:28 AM 35.7442 -120.0794 139° Southeast 445 512 41,000  Level Oakland Center
Mon 12:42:28 AM 35.6500 -119.9806 140° Southeast 442 509 41,000  Level Oakland Center
Mon 12:43:29 AM 35.5486 -119.8911 144° Southeast 442 509 41,000  Level Oakland Center
Mon 12:44:30 AM 35.4472 -119.8042 145° Southeast 442 509 41,000  Level Oakland Center
Mon 12:45:31 AM 35.3456 -119.7172 145° Southeast 442 509 41,000  Level Oakland Center
Mon 12:46:32 AM 35.2436 -119.6303 145° Southeast 443 510 41,000  Level Oakland Center
Mon 12:47:33 AM 35.1417 -119.5436 145° Southeast 444 511 41,000  Level Oakland Center
Mon 12:48:33 AM 35.0392 -119.4567 145° Southeast 446 513 41,000 -397 Level Oakland Center
Mon 12:49:34 AM 34.9364 -119.3717 146° Southeast 447 514 40,200 -1,672 Descending Oakland Center
Mon 12:50:35 AM 34.8386 -119.2853 144° Southeast 439 505 37,600 -2,705 Descending Oakland Center
Mon 12:51:36 AM 34.7392 -119.2008 145° Southeast 436 502 34,700 -3,066 Descending Oakland Center
Mon 12:52:52 AM 34.5975 -119.0836 146° Southeast 442 509 30,600 -2,891 Descending Los Angeles Center
Mon 12:53:53 AM 34.4975 -119.0011 146° Southeast 437 503 28,100 -2,390 Descending Los Angeles Center
Mon 12:54:55 AM 34.4033 -118.9214 145° Southeast 422 486 25,700 -2,341 Descending Los Angeles Center
Mon 12:55:56 AM 34.3017 -118.8622 154° Southeast 408 470 23,300 -2,361 Descending Los Angeles Center
Mon 12:56:57 AM 34.1972 -118.8239 163° South 394 453 20,900 -2,244 Descending Los Angeles Center
Mon 12:57:59 AM 34.0958 -118.7861 163° South 381 438 18,700 -2,439 Descending Los Angeles Center
Mon 12:59:00 AM 33.9797 -118.7431 163° South 377 434 15,900 -2,262 Descending Los Angeles Center
Mon 01:00:01 AM 33.8842 -118.7081 163° South 363 418 14,100 -1,317 Descending Los Angeles Center
Mon 01:01:03 AM 33.7900 -118.6744 163° South 347 399 13,200 -927 Descending Los Angeles Center
Mon 01:02:04 AM 33.6992 -118.6428 164° South 345 397 12,200 -934 Descending Los Angeles Center
Mon 01:03:05 AM 33.6122 -118.6103 163° South 332 382 11,300 -976 Descending Los Angeles Center
Mon 01:04:07 AM 33.5525 -118.5361 134° Southeast 319 367 10,200 -1,073 Descending Los Angeles Center
Mon 01:05:08 AM 33.5503 -118.4461 92° East 292 336 9,100 -1,415 Descending Los Angeles Center
Mon 01:06:10 AM 33.5769 -118.3383 73° East 285 328 7,300 -1,171 Descending Los Angeles Center
Mon 01:07:11 AM 33.5978 -118.2561 73° East 273 314 6,700 -787 Descending Los Angeles Center
Mon 01:08:12 AM 33.6233 -118.1842 67° East 252 290 5,700 -1,024 Descending Los Angeles Center
Mon 01:09:14 AM 33.6592 -118.1181 57° Northeast 242 278 4,600 -1,111 Descending Los Angeles Center
Mon 01:09:33 AM 33.6667 -118.0833 75° East 236 272 4,200 -1,063 Descending Southern California TRACON
Mon 01:10:33 AM 33.7000 -118.0167 59° Northeast 234 269 3,200 -626 Descending Southern California TRACON
Mon 01:11:28 AM 33.7333 -117.9667 51° Northeast 224 258 3,000 -105 Descending Southern California TRACON
Mon 01:12:27 AM 33.7833 -117.9167 40° Northeast 220 253 3,000  Level Southern California TRACON
Mon 01:13:33 AM 33.8167 -117.8667 51° Northeast 209 241 3,000  Level Southern California TRACON
Mon 01:14:33 AM 33.8500 -117.8000 59° Northeast 216 249 3,000 -105 Level Southern California TRACON
Mon 01:15:27 AM 33.8167 -117.7833 157° South 179 206 2,800 -550 Descending Southern California TRACON
Mon 01:16:33 AM 33.7667 -117.8167 209° Southwest 178 205 1,900 -850 Descending Southern California TRACON
Mon 01:17:27 AM 33.7333 -117.8333 203° Southwest 138 159 1,100 -756 Descending Southern California TRACON
Mon 01:18:40 AM 33.6833 -117.8667 209° Southwest 126 145 300 -658 Descending Southern California TRACON

Login

Don't have an account? Register now (free) for customized features, flight alerts, and more!